createdAt,value
2023-04-01T00:00:24.556Z,77.5317
2023-04-01T00:01:25.364Z,77.5514
2023-04-01T00:02:26.481Z,77.4590
2023-04-01T00:03:28.282Z,77.3671
2023-04-01T00:04:29.596Z,77.6472
2023-04-01T00:05:30.630Z,77.6138
2023-04-01T00:06:31.670Z,77.5412
2023-04-01T00:07:32.447Z,77.4700
2023-04-01T00:08:33.247Z,77.2066
2023-04-01T00:09:34.093Z,77.5062
2023-04-01T00:10:34.900Z,77.5405
2023-04-01T00:11:35.876Z,77.4959
2023-04-01T00:12:36.764Z,77.6683
2023-04-01T00:13:37.573Z,77.5716
2023-04-01T00:14:38.386Z,77.4174
2023-04-01T00:15:39.213Z,77.5842
2023-04-01T00:16:40.208Z,77.4096
2023-04-01T00:17:41.054Z,77.6397
2023-04-01T00:18:41.862Z,77.8486
2023-04-01T00:19:43.824Z,77.4779
2023-04-01T00:20:44.571Z,77.2949
2023-04-01T00:21:45.409Z,77.5751
2023-04-01T00:22:46.184Z,77.0299
2023-04-01T00:23:47.050Z,77.0638
2023-04-01T00:24:47.828Z,77.1756
2023-04-01T00:25:48.645Z,77.3602
2023-04-01T00:26:49.486Z,77.5652
2023-04-01T00:27:50.355Z,77.7066
2023-04-01T00:28:51.140Z,77.4931
2023-04-01T00:29:52.040Z,77.7121
2023-04-01T00:30:52.833Z,77.4409
2023-04-01T00:31:53.674Z,77.3392
2023-04-01T00:32:54.659Z,77.3638
2023-04-01T00:33:55.552Z,77.6885
2023-04-01T00:34:56.413Z,77.8897
2023-04-01T00:35:57.345Z,77.8380
2023-04-01T00:36:58.165Z,77.8381
2023-04-01T00:37:59.022Z,77.9232
2023-04-01T00:38:59.903Z,77.7523
2023-04-01T00:40:00.723Z,77.1949
2023-04-01T00:41:01.538Z,77.4935
2023-04-01T00:42:02.486Z,76.9724
2023-04-01T00:43:03.337Z,77.0149
2023-04-01T00:44:04.146Z,77.1576
2023-04-01T00:45:04.928Z,76.6423
2023-04-01T00:46:05.740Z,76.3663
2023-04-01T00:47:06.687Z,76.3859
2023-04-01T00:48:07.785Z,76.8099
2023-04-01T00:49:08.638Z,76.2940
2023-04-01T00:50:09.578Z,76.3385
2023-04-01T00:51:10.484Z,76.2245
2023-04-01T00:52:11.346Z,76.5954
2023-04-01T00:53:12.180Z,76.7540
2023-04-01T00:54:13.106Z,76.4493
2023-04-01T00:55:13.903Z,76.3727
2023-04-01T00:56:14.720Z,76.7220
2023-04-01T00:57:15.818Z,76.6306
2023-04-01T00:58:16.587Z,76.7311
2023-04-01T00:59:17.428Z,76.7567
2023-04-01T01:00:18.251Z,77.0100
2023-04-01T01:01:19.183Z,76.8471
2023-04-01T01:02:20.117Z,76.9988
2023-04-01T01:03:21.012Z,76.9730
2023-04-01T01:04:21.852Z,77.2406
2023-04-01T01:05:24.046Z,77.6467
2023-04-01T01:06:23.809Z,77.4004
2023-04-01T01:07:24.725Z,76.7964
2023-04-01T01:08:25.550Z,77.1331
2023-04-01T01:09:26.359Z,77.3367
2023-04-01T01:10:27.191Z,77.3847
2023-04-01T01:11:33.572Z,77.4708
2023-04-01T01:12:28.356Z,77.4277
2023-04-01T01:13:29.162Z,77.9508
2023-04-01T01:14:29.996Z,77.7460
2023-04-01T01:15:31.409Z,78.0706
2023-04-01T01:16:32.374Z,78.2153
2023-04-01T01:17:33.255Z,78.4269
2023-04-01T01:18:34.167Z,78.3541
2023-04-01T01:19:35.088Z,78.1860
2023-04-01T01:20:35.915Z,78.3422
2023-04-01T01:21:36.780Z,78.3720
2023-04-01T01:22:37.698Z,78.2362
2023-04-01T01:23:38.527Z,78.7901
2023-04-01T01:24:39.446Z,79.3513
2023-04-01T01:25:40.302Z,79.0534
2023-04-01T01:26:41.130Z,79.0508
2023-04-01T01:27:41.984Z,79.4263
2023-04-01T01:28:42.838Z,79.2967
2023-04-01T01:29:43.691Z,79.2906
2023-04-01T01:30:44.604Z,79.3742
2023-04-01T01:31:45.380Z,79.3387
2023-04-01T01:32:46.271Z,79.2026
2023-04-01T01:33:47.101Z,79.3040
2023-04-01T01:34:48.042Z,79.3659
2023-04-01T01:35:48.857Z,79.1101
2023-04-01T01:36:49.688Z,78.5139
2023-04-01T01:37:50.589Z,78.4371
2023-04-01T01:38:51.388Z,78.6040
2023-04-01T01:39:52.281Z,77.8315
2023-04-01T01:40:53.106Z,78.4566
2023-04-01T01:41:53.946Z,79.0042
2023-04-01T01:42:54.827Z,78.8704
2023-04-01T01:43:55.737Z,78.5367
2023-04-01T01:44:56.586Z,78.6122
2023-04-01T01:45:57.436Z,78.7844
2023-04-01T01:46:58.227Z,79.0359
2023-04-01T01:47:59.302Z,79.1738
2023-04-01T01:49:00.051Z,78.2790
2023-04-01T01:50:00.852Z,78.3114
2023-04-01T01:51:01.649Z,78.4918
2023-04-01T01:52:02.518Z,78.3738
2023-04-01T01:53:03.427Z,78.2313
2023-04-01T01:54:04.200Z,77.4688
2023-04-01T01:55:04.994Z,77.6125
2023-04-01T01:56:05.831Z,77.8194
2023-04-01T01:57:06.737Z,78.0016
2023-04-01T01:58:07.543Z,78.3163
2023-04-01T01:59:08.394Z,77.4126
2023-04-01T02:00:09.179Z,77.6370
2023-04-01T02:01:10.074Z,77.1686
2023-04-01T02:02:10.845Z,77.3947
2023-04-01T02:03:11.686Z,77.4905
2023-04-01T02:04:12.697Z,77.4210
2023-04-01T02:05:13.487Z,77.4778
2023-04-01T02:06:14.298Z,77.0879
2023-04-01T02:07:15.119Z,77.4436
2023-04-01T02:08:16.009Z,77.0874
2023-04-01T02:09:16.840Z,77.1318
2023-04-01T02:10:17.726Z,76.9936
2023-04-01T02:11:18.516Z,76.7933
2023-04-01T02:12:19.324Z,76.7568
2023-04-01T02:13:20.197Z,76.5913
2023-04-01T02:14:21.029Z,76.2059
2023-04-01T02:15:21.824Z,76.2795
2023-04-01T02:16:22.728Z,76.3872
2023-04-01T02:17:23.562Z,76.4474
2023-04-01T02:18:24.453Z,76.1482
2023-04-01T02:19:25.267Z,76.2444
2023-04-01T02:20:26.097Z,75.9179
2023-04-01T02:21:26.957Z,76.1164
2023-04-01T02:22:27.790Z,75.7989
2023-04-01T02:23:28.859Z,76.0908
2023-04-01T02:24:29.708Z,76.0000
2023-04-01T02:25:30.898Z,76.1073
2023-04-01T02:26:31.892Z,76.0285
2023-04-01T02:27:32.682Z,75.9058
2023-04-01T02:28:33.537Z,75.8547
2023-04-01T02:29:34.369Z,76.2562
2023-04-01T02:30:35.190Z,76.4156
2023-04-01T02:31:36.130Z,75.7234
2023-04-01T02:32:37.013Z,75.3967
2023-04-01T02:33:37.802Z,75.6521
2023-04-01T02:34:38.634Z,74.3867
2023-04-01T02:35:39.507Z,74.2735
2023-04-01T02:36:40.498Z,74.7336
2023-04-01T02:37:41.303Z,74.8961
2023-04-01T02:38:42.163Z,74.8278
2023-04-01T02:39:42.982Z,75.2379
2023-04-01T02:40:43.856Z,75.5309
2023-04-01T02:41:44.663Z,75.1961
2023-04-01T02:42:45.527Z,75.0453
2023-04-01T02:43:46.467Z,74.9928
2023-04-01T02:44:47.332Z,75.5680
2023-04-01T02:45:48.151Z,75.7798
2023-04-01T02:46:48.987Z,76.1658
2023-04-01T02:47:49.891Z,76.4350
2023-04-01T02:48:50.715Z,76.8278
2023-04-01T02:49:51.627Z,77.6794
2023-04-01T02:50:52.445Z,78.2008
2023-04-01T02:51:53.297Z,78.4870
2023-04-01T02:52:54.202Z,78.8875
2023-04-01T02:53:55.027Z,78.6224
2023-04-01T02:54:55.838Z,78.0952
2023-04-01T02:55:56.679Z,77.5016
2023-04-01T02:56:57.791Z,76.9612
2023-04-01T02:57:58.718Z,76.9922
2023-04-01T02:58:59.550Z,77.4613
2023-04-01T03:00:00.427Z,77.6667
2023-04-01T03:01:01.380Z,77.7728
2023-04-01T03:02:02.374Z,77.7022
2023-04-01T03:03:03.981Z,77.4422
2023-04-01T03:04:05.012Z,77.0129
2023-04-01T03:05:05.846Z,76.9154
2023-04-01T03:06:06.767Z,76.3728
2023-04-01T03:07:07.649Z,76.9060
2023-04-01T03:08:08.578Z,76.5572
2023-04-01T03:09:09.430Z,76.1203
2023-04-01T03:10:10.238Z,75.6135
2023-04-01T03:11:11.060Z,75.4502
2023-04-01T03:12:11.964Z,75.3323
2023-04-01T03:13:12.818Z,75.1129
2023-04-01T03:14:13.656Z,75.4587
2023-04-01T03:15:14.565Z,75.7707
2023-04-01T03:16:15.525Z,75.9978
2023-04-01T03:17:16.416Z,75.6421
2023-04-01T03:18:17.334Z,76.0263
2023-04-01T03:19:18.169Z,76.3855
2023-04-01T03:20:19.046Z,76.4720
2023-04-01T03:21:19.852Z,76.2662
2023-04-01T03:22:20.731Z,75.8333
2023-04-01T03:23:21.638Z,75.8117
2023-04-01T03:24:22.445Z,76.0921
2023-04-01T03:25:23.349Z,76.0790
2023-04-01T03:26:24.222Z,76.2891
2023-04-01T03:27:25.023Z,76.2661
2023-04-01T03:28:25.871Z,75.4490
2023-04-01T03:29:26.722Z,75.8478
2023-04-01T03:30:27.627Z,75.8874
2023-04-01T03:31:28.959Z,76.1368
2023-04-01T03:32:29.985Z,76.1746
2023-04-01T03:33:30.803Z,75.6546
2023-04-01T03:34:31.635Z,75.9984
2023-04-01T03:35:33.388Z,76.2691
2023-04-01T03:36:34.442Z,76.4216
2023-04-01T03:37:35.305Z,76.7016
2023-04-01T03:38:36.150Z,76.8547
2023-04-01T03:39:37.031Z,76.4569
2023-04-01T03:40:37.891Z,76.3934
2023-04-01T03:41:38.712Z,76.8074
2023-04-01T03:42:39.572Z,76.9494
2023-04-01T03:43:40.427Z,76.9966
2023-04-01T03:44:41.262Z,77.1143
2023-04-01T03:45:42.121Z,76.3691
2023-04-01T03:46:43.122Z,76.4097
2023-04-01T03:47:44.231Z,76.3602
2023-04-01T03:48:45.294Z,75.9543
2023-04-01T03:49:46.196Z,75.5653
2023-04-01T03:50:47.013Z,75.6472
2023-04-01T03:51:47.808Z,75.6336
2023-04-01T03:52:48.631Z,75.2847
2023-04-01T03:53:49.428Z,75.7593
2023-04-01T03:54:50.377Z,75.0256
2023-04-01T03:55:51.213Z,74.2469
2023-04-01T03:56:52.255Z,74.6002
2023-04-01T03:57:53.173Z,75.0191
2023-04-01T03:58:54.001Z,75.1139
2023-04-01T03:59:54.806Z,74.8654
2023-04-01T04:00:55.664Z,74.9321
2023-04-01T04:01:56.461Z,74.3902
2023-04-01T04:02:57.836Z,74.5141
2023-04-01T04:03:58.799Z,74.7451
2023-04-01T04:04:59.607Z,75.0937
2023-04-01T04:06:00.433Z,75.6983
2023-04-01T04:07:01.324Z,76.4325
2023-04-01T04:08:02.158Z,76.5639
2023-04-01T04:09:03.004Z,76.0704
2023-04-01T04:10:03.868Z,75.5618
2023-04-01T04:11:04.730Z,75.1475
2023-04-01T04:12:05.653Z,75.3558
2023-04-01T04:13:06.431Z,75.1228
2023-04-01T04:14:07.368Z,75.4996
2023-04-01T04:15:08.283Z,75.3829
2023-04-01T04:16:09.142Z,75.0329
2023-04-01T04:17:09.973Z,74.9314
2023-04-01T04:18:10.788Z,75.0764
2023-04-01T04:19:12.035Z,74.6340
2023-04-01T04:20:12.950Z,74.0361
2023-04-01T04:21:13.844Z,74.1454
2023-04-01T04:22:14.645Z,74.2950
2023-04-01T04:23:15.576Z,74.6096
2023-04-01T04:24:16.419Z,74.7591
2023-04-01T04:25:17.300Z,73.9398
2023-04-01T04:26:18.132Z,74.0815
2023-04-01T04:27:18.968Z,74.1196
2023-04-01T04:28:19.803Z,74.2520
2023-04-01T04:29:20.698Z,73.5914
2023-04-01T04:30:21.577Z,73.6941
2023-04-01T04:31:22.439Z,73.4248
2023-04-01T04:32:23.326Z,73.6335
2023-04-01T04:33:24.111Z,74.1070
2023-04-01T04:34:25.044Z,74.3150
2023-04-01T04:35:25.879Z,75.5056
2023-04-01T04:36:26.684Z,77.5935
2023-04-01T04:37:27.502Z,78.9516
2023-04-01T04:38:28.350Z,79.3314
2023-04-01T04:39:29.175Z,78.5984
2023-04-01T04:40:30.066Z,78.9718
2023-04-01T04:41:30.954Z,80.0296
2023-04-01T04:42:31.828Z,79.6318
2023-04-01T04:43:32.887Z,79.7436
2023-04-01T04:44:33.826Z,78.9521
2023-04-01T04:45:35.582Z,78.7321
2023-04-01T04:46:36.582Z,78.4377
2023-04-01T04:47:37.506Z,78.4467
2023-04-01T04:48:38.325Z,78.3954
2023-04-01T04:49:39.214Z,78.8925
2023-04-01T04:50:40.105Z,79.2200
2023-04-01T04:51:40.946Z,79.4130
2023-04-01T04:52:41.771Z,79.2784
2023-04-01T04:53:42.622Z,78.9825
2023-04-01T04:54:43.491Z,79.1210
2023-04-01T04:55:44.319Z,79.6303
2023-04-01T04:56:45.179Z,79.4584
2023-04-01T04:57:46.065Z,78.8348
2023-04-01T04:58:46.931Z,79.4254
2023-04-01T04:59:47.760Z,79.9998
2023-04-01T05:00:48.633Z,79.7968
2023-04-01T05:01:49.689Z,80.0634
2023-04-01T05:02:50.676Z,80.4968
2023-04-01T05:03:51.577Z,80.7012
2023-04-01T05:04:52.528Z,81.1914
2023-04-01T05:05:53.401Z,80.7770
2023-04-01T05:06:54.322Z,80.6957
2023-04-01T05:07:55.218Z,80.2083
2023-04-01T05:08:56.052Z,80.2889
2023-04-01T05:09:56.955Z,79.9012
2023-04-01T05:10:57.817Z,79.6618
2023-04-01T05:11:58.667Z,79.9183
2023-04-01T05:12:59.536Z,80.3463
2023-04-01T05:14:00.381Z,80.2676
2023-04-01T05:15:01.194Z,80.0932
2023-04-01T05:16:02.012Z,80.2245
2023-04-01T05:17:02.961Z,80.7652
2023-04-01T05:18:03.858Z,81.1560
2023-04-01T05:19:04.767Z,81.1940
2023-04-01T05:20:05.667Z,81.8956
2023-04-01T05:21:06.452Z,81.4308
2023-04-01T05:22:07.426Z,81.6821
2023-04-01T05:23:08.284Z,81.3629
2023-04-01T05:24:09.132Z,81.1472
2023-04-01T05:25:10.003Z,81.5191
2023-04-01T05:26:10.829Z,81.3977
2023-04-01T05:27:11.670Z,81.5144
2023-04-01T05:28:12.594Z,81.9289
2023-04-01T05:29:13.423Z,81.6076
2023-04-01T05:30:14.314Z,81.5551
2023-04-01T05:31:15.231Z,81.3283
2023-04-01T05:32:16.128Z,81.6690
2023-04-01T05:33:16.984Z,81.8440
2023-04-01T05:34:17.799Z,81.6051
2023-04-01T05:35:18.681Z,81.6306
2023-04-01T05:36:19.650Z,81.9550
2023-04-01T05:37:20.452Z,83.0202
2023-04-01T05:38:21.330Z,83.7984
2023-04-01T05:39:22.212Z,83.9222
2023-04-01T05:40:23.136Z,83.5291
2023-04-01T05:41:24.046Z,83.4572
2023-04-01T05:42:24.905Z,83.3748
2023-04-01T05:43:25.826Z,83.3750
2023-04-01T05:44:26.665Z,83.4268
2023-04-01T05:45:27.489Z,83.6422
2023-04-01T05:46:28.448Z,83.9016
2023-04-01T05:47:29.461Z,83.7573
2023-04-01T05:48:30.347Z,83.1584
2023-04-01T05:49:31.180Z,83.3421
2023-04-01T05:50:32.054Z,83.6068
2023-04-01T05:51:32.908Z,82.9554
2023-04-01T05:52:33.768Z,82.7690
2023-04-01T05:53:34.599Z,82.5798
2023-04-01T05:54:35.495Z,82.7567
2023-04-01T05:55:36.392Z,82.4810
2023-04-01T05:56:37.433Z,82.6778
2023-04-01T05:57:38.498Z,82.7957
2023-04-01T05:58:39.328Z,82.8950
2023-04-01T05:59:40.212Z,82.8588
2023-04-01T06:00:41.060Z,83.3397
2023-04-01T06:01:41.924Z,83.1113
2023-04-01T06:02:42.913Z,82.8959
2023-04-01T06:03:44.669Z,82.8322
2023-04-01T06:04:46.054Z,82.9383
2023-04-01T06:05:47.091Z,83.1585
2023-04-01T06:06:48.006Z,82.5939
2023-04-01T06:07:48.800Z,83.0703
2023-04-01T06:08:49.612Z,83.3993
2023-04-01T06:09:50.502Z,83.1732
2023-04-01T06:10:51.358Z,83.0282
2023-04-01T06:11:52.227Z,82.8352
2023-04-01T06:12:53.081Z,82.8715
2023-04-01T06:13:53.944Z,82.5041
2023-04-01T06:14:54.817Z,82.2692
2023-04-01T06:15:55.653Z,81.8726
2023-04-01T06:16:56.443Z,82.1089
2023-04-01T06:17:57.281Z,81.8216
2023-04-01T06:18:58.100Z,81.0110
2023-04-01T06:19:58.963Z,80.8481
2023-04-01T06:20:59.824Z,81.2267
2023-04-01T06:22:00.965Z,80.7435
2023-04-01T06:23:01.827Z,80.9916
2023-04-01T06:24:02.707Z,80.9838
2023-04-01T06:25:03.666Z,81.2612
2023-04-01T06:26:04.497Z,81.3233
2023-04-01T06:27:05.350Z,81.2326
2023-04-01T06:28:09.381Z,81.1987
2023-04-01T06:29:08.061Z,81.2731
2023-04-01T06:30:09.026Z,81.0194
2023-04-01T06:31:10.252Z,81.6218
2023-04-01T06:32:11.442Z,81.4337
2023-04-01T06:33:12.642Z,81.2175
2023-04-01T06:34:13.536Z,81.4078
2023-04-01T06:35:14.411Z,81.2013
2023-04-01T06:36:15.293Z,80.6145
2023-04-01T06:37:16.080Z,80.6278
2023-04-01T06:38:16.918Z,80.0112
2023-04-01T06:39:17.785Z,79.2629
2023-04-01T06:40:18.669Z,79.0571
2023-04-01T06:41:19.584Z,79.0682
2023-04-01T06:42:20.424Z,78.7591
2023-04-01T06:43:21.292Z,79.0441
2023-04-01T06:44:22.146Z,78.9647
2023-04-01T06:45:23.072Z,79.1486
2023-04-01T06:46:24.102Z,78.8569
2023-04-01T06:47:25.280Z,78.2747
2023-04-01T06:48:26.082Z,78.4201
2023-04-01T06:49:27.050Z,78.2136
2023-04-01T06:50:28.008Z,78.3278
2023-04-01T06:51:28.888Z,78.5810
2023-04-01T06:52:29.682Z,78.2090
2023-04-01T06:53:30.532Z,77.1766
2023-04-01T06:54:31.366Z,76.6590
2023-04-01T06:55:32.593Z,76.7226
2023-04-01T06:56:33.630Z,76.6252
2023-04-01T06:57:34.460Z,76.5265
2023-04-01T06:58:35.293Z,76.3480
2023-04-01T06:59:36.102Z,76.2370
2023-04-01T07:00:36.164Z,76.1208
2023-04-01T07:01:37.925Z,75.8880
2023-04-01T07:02:38.974Z,75.5057
2023-04-01T07:03:40.050Z,76.1378
2023-04-01T07:04:41.131Z,75.7714
2023-04-01T07:05:41.989Z,76.0684
2023-04-01T07:06:42.913Z,76.6740
2023-04-01T07:07:43.769Z,76.7339
2023-04-01T07:08:44.694Z,76.1698
2023-04-01T07:09:45.602Z,76.5621
2023-04-01T07:10:46.448Z,76.9961
2023-04-01T07:11:47.299Z,76.6610
2023-04-01T07:12:48.064Z,76.6708
2023-04-01T07:13:48.885Z,76.1858
2023-04-01T07:14:49.739Z,76.1559
2023-04-01T07:15:50.599Z,76.3641
2023-04-01T07:16:51.577Z,76.8481
2023-04-01T07:17:52.385Z,76.6350
2023-04-01T07:18:53.261Z,77.1657
2023-04-01T07:19:54.090Z,77.9065
2023-04-01T07:20:54.941Z,78.3906
2023-04-01T07:21:55.903Z,78.2571
2023-04-01T07:22:56.702Z,78.7371
2023-04-01T07:23:57.511Z,79.2692
2023-04-01T07:24:58.394Z,79.8113
2023-04-01T07:25:59.235Z,80.9901
2023-04-01T07:27:00.158Z,81.6122
2023-04-01T07:28:00.970Z,81.9660
2023-04-01T07:29:01.782Z,82.2543
2023-04-01T07:30:02.608Z,82.9277
2023-04-01T07:31:03.488Z,83.7235
2023-04-01T07:32:04.349Z,83.6723
2023-04-01T07:33:05.270Z,84.0535
2023-04-01T07:34:06.102Z,83.2143
2023-04-01T07:35:06.934Z,83.4766
2023-04-01T07:36:07.794Z,83.4026
2023-04-01T07:37:08.635Z,84.5790
2023-04-01T07:38:09.445Z,84.1247
2023-04-01T07:39:10.303Z,83.4392
2023-04-01T07:40:11.204Z,83.9654
2023-04-01T07:41:12.100Z,84.2290
2023-04-01T07:42:12.873Z,84.4945
2023-04-01T07:43:13.740Z,85.3162
2023-04-01T07:44:14.684Z,84.0742
2023-04-01T07:45:15.496Z,84.4611
2023-04-01T07:46:16.626Z,85.1508
2023-04-01T07:47:17.571Z,85.4553
2023-04-01T07:48:18.393Z,85.3594
2023-04-01T07:49:19.255Z,85.8113
2023-04-01T07:50:20.094Z,85.8499
2023-04-01T07:51:20.920Z,85.7458
2023-04-01T07:52:21.706Z,85.5668
2023-04-01T07:53:22.528Z,86.0667
2023-04-01T07:54:23.355Z,86.4258
2023-04-01T07:55:24.200Z,85.9325
2023-04-01T07:56:25.021Z,85.4633
2023-04-01T07:57:26.045Z,85.6900
2023-04-01T07:58:26.936Z,85.6094
2023-04-01T07:59:27.732Z,86.1578
2023-04-01T08:00:29.606Z,85.5621
2023-04-01T08:01:30.462Z,86.0720
2023-04-01T08:02:31.552Z,86.2882
2023-04-01T08:03:32.771Z,86.2094
2023-04-01T08:04:33.881Z,86.6508
2023-04-01T08:05:35.822Z,86.0512
2023-04-01T08:06:36.876Z,86.5471
2023-04-01T08:07:37.718Z,87.0284
2023-04-01T08:08:38.537Z,87.5595
2023-04-01T08:09:39.399Z,87.9935
2023-04-01T08:10:40.196Z,87.9794
2023-04-01T08:11:44.225Z,87.8338
2023-04-01T08:12:42.784Z,86.8987
2023-04-01T08:13:43.576Z,88.1564
2023-04-01T08:14:44.435Z,88.6141
2023-04-01T08:15:45.282Z,88.2389
2023-04-01T08:16:46.182Z,87.9053
2023-04-01T08:17:47.077Z,87.7888
2023-04-01T08:18:47.892Z,86.9704
2023-04-01T08:19:48.759Z,87.1810
2023-04-01T08:20:49.601Z,87.6088
2023-04-01T08:21:50.438Z,88.2658
2023-04-01T08:22:51.299Z,88.4943
2023-04-01T08:23:52.124Z,87.4184
2023-04-01T08:24:52.989Z,87.2663
2023-04-01T08:25:53.838Z,87.4152
2023-04-01T08:26:54.749Z,87.3572
2023-04-01T08:27:55.568Z,87.9127
2023-04-01T08:28:56.460Z,87.8916
2023-04-01T08:29:57.295Z,87.7416
2023-04-01T08:30:58.227Z,87.9818
2023-04-01T08:31:59.213Z,87.9874
2023-04-01T08:33:00.216Z,85.7172
2023-04-01T08:34:01.140Z,85.5666
2023-04-01T08:35:02.071Z,86.8295
2023-04-01T08:36:03.063Z,87.2770
2023-04-01T08:37:03.957Z,87.6695
2023-04-01T08:38:04.774Z,88.3492
2023-04-01T08:39:05.608Z,87.8959
2023-04-01T08:40:06.538Z,88.6502
2023-04-01T08:41:07.486Z,88.5805
2023-04-01T08:42:08.389Z,88.3664
2023-04-01T08:43:09.349Z,88.9767
2023-04-01T08:44:10.254Z,89.0468
2023-04-01T08:45:14.736Z,88.2687
2023-04-01T08:46:11.266Z,88.3514
2023-04-01T08:47:12.186Z,88.7513
2023-04-01T08:48:13.245Z,88.7903
2023-04-01T08:49:14.122Z,88.7400
2023-04-01T08:50:14.976Z,88.2637
2023-04-01T08:51:15.862Z,88.2226
2023-04-01T08:52:16.699Z,87.7354
2023-04-01T08:53:17.535Z,87.1132
2023-04-01T08:54:18.439Z,87.0357
2023-04-01T08:55:19.294Z,87.4599
2023-04-01T08:56:20.184Z,88.0749
2023-04-01T08:57:21.191Z,87.5850
2023-04-01T08:58:22.007Z,87.4284
2023-04-01T08:59:22.835Z,88.2564
2023-04-01T09:00:23.703Z,87.8977
2023-04-01T09:01:24.569Z,88.1448
2023-04-01T09:02:25.663Z,88.6404
2023-04-01T09:03:26.850Z,88.5558
2023-04-01T09:04:27.980Z,88.1933
2023-04-01T09:05:28.796Z,88.1993
2023-04-01T09:06:29.703Z,87.9015
2023-04-01T09:07:30.566Z,87.5002
2023-04-01T09:08:31.428Z,87.9272
2023-04-01T09:09:32.270Z,88.0417
2023-04-01T09:10:33.151Z,88.5367
2023-04-01T09:11:34.061Z,88.9347
2023-04-01T09:12:34.966Z,89.0602
2023-04-01T09:13:35.781Z,89.7416
2023-04-01T09:14:36.630Z,89.0619
2023-04-01T09:15:37.917Z,89.4736
2023-04-01T09:16:38.853Z,88.4499
2023-04-01T09:17:39.872Z,87.4011
2023-04-01T09:18:40.799Z,86.5517
2023-04-01T09:19:41.638Z,87.4217
2023-04-01T09:20:42.456Z,87.3781
2023-04-01T09:21:43.275Z,87.4115
2023-04-01T09:22:44.159Z,87.2631
2023-04-01T09:23:44.989Z,87.0851
2023-04-01T09:24:45.925Z,87.8035
2023-04-01T09:25:46.741Z,87.8477
2023-04-01T09:26:47.648Z,87.8283
2023-04-01T09:27:49.660Z,86.9552
2023-04-01T09:28:50.526Z,87.2944
2023-04-01T09:29:51.420Z,87.2383
2023-04-01T09:30:52.260Z,86.9011
2023-04-01T09:31:53.373Z,87.2606
2023-04-01T09:32:54.498Z,88.0555
2023-04-01T09:33:55.456Z,87.5576
2023-04-01T09:34:56.306Z,87.9619
2023-04-01T09:35:57.222Z,88.2274
2023-04-01T09:36:58.099Z,88.3412
2023-04-01T09:37:58.913Z,88.6926
2023-04-01T09:38:59.741Z,88.0148
2023-04-01T09:40:00.686Z,87.2467
2023-04-01T09:41:01.538Z,86.9729
2023-04-01T09:42:02.428Z,87.3109
2023-04-01T09:43:03.328Z,87.0704
2023-04-01T09:44:04.125Z,86.5279
2023-04-01T09:45:05.044Z,86.4044
2023-04-01T09:46:05.924Z,87.2023
2023-04-01T09:47:06.827Z,86.9952
2023-04-01T09:48:07.935Z,86.0293
2023-04-01T09:49:08.752Z,86.6207
2023-04-01T09:50:09.615Z,85.8365
2023-04-01T09:51:10.419Z,85.0127
2023-04-01T09:52:11.274Z,84.4550
2023-04-01T09:53:12.101Z,84.7476
2023-04-01T09:54:13.054Z,84.2131
2023-04-01T09:55:14.018Z,83.8601
2023-04-01T09:56:14.863Z,84.8387
2023-04-01T09:57:15.761Z,85.0766
2023-04-01T09:58:16.581Z,84.5491
2023-04-01T09:59:17.407Z,84.8131
2023-04-01T10:00:19.299Z,83.8531
2023-04-01T10:01:20.224Z,83.5747
2023-04-01T10:02:21.096Z,83.0808
2023-04-01T10:03:21.871Z,83.8044
2023-04-01T10:04:22.717Z,83.3585
2023-04-01T10:05:23.614Z,81.7893
2023-04-01T10:06:24.385Z,81.4280
2023-04-01T10:07:25.184Z,81.4263
2023-04-01T10:08:26.003Z,81.5248
2023-04-01T10:09:26.824Z,81.5662
2023-04-01T10:10:27.753Z,81.7963
2023-04-01T10:11:28.619Z,82.1868
2023-04-01T10:12:29.530Z,82.2122
2023-04-01T10:13:30.364Z,81.5419
2023-04-01T10:14:31.187Z,81.6391
2023-04-01T10:15:32.714Z,82.3785
2023-04-01T10:16:33.875Z,82.0742
2023-04-01T10:17:34.655Z,82.3811
2023-04-01T10:18:35.526Z,82.6129
2023-04-01T10:19:36.463Z,82.8295
2023-04-01T10:20:37.293Z,83.4511
2023-04-01T10:21:38.095Z,83.6761
2023-04-01T10:22:38.889Z,83.0792
2023-04-01T10:23:39.775Z,82.8016
2023-04-01T10:24:40.587Z,83.0217
2023-04-01T10:25:41.476Z,82.9560
2023-04-01T10:26:42.672Z,83.4118
2023-04-01T10:27:43.539Z,83.2353
2023-04-01T10:28:44.330Z,82.2105
2023-04-01T10:29:45.114Z,80.1910
2023-04-01T10:30:45.979Z,80.7714
2023-04-01T10:31:46.994Z,81.6857
2023-04-01T10:32:47.871Z,82.3449
2023-04-01T10:33:48.663Z,82.6828
2023-04-01T10:34:49.469Z,81.1051
2023-04-01T10:35:50.344Z,80.5962
2023-04-01T10:36:51.227Z,80.9721
2023-04-01T10:37:52.060Z,81.4926
2023-04-01T10:38:52.863Z,81.6644
2023-04-01T10:39:53.664Z,81.9504
2023-04-01T10:40:54.473Z,81.5916
2023-04-01T10:41:55.272Z,81.9450
2023-04-01T10:42:56.100Z,81.8404
2023-04-01T10:43:56.956Z,80.9518
2023-04-01T10:44:58.775Z,81.5988
2023-04-01T10:45:59.689Z,81.6386
2023-04-01T10:47:00.461Z,81.4668
2023-04-01T10:48:01.272Z,81.4862
2023-04-01T10:49:02.067Z,81.8011
2023-04-01T10:50:02.853Z,81.8510
2023-04-01T10:51:03.752Z,80.9663
2023-04-01T10:52:04.487Z,80.6652
2023-04-01T10:53:07.850Z,81.0023
2023-04-01T10:54:06.425Z,80.9257
2023-04-01T10:55:07.226Z,80.9116
2023-04-01T10:56:08.031Z,80.7221
2023-04-01T10:57:08.856Z,80.0900
2023-04-01T10:58:09.738Z,80.5618
2023-04-01T10:59:10.530Z,81.1310
2023-04-01T11:00:11.303Z,80.7667
2023-04-01T11:01:12.103Z,80.4913
2023-04-01T11:02:13.182Z,80.3221
2023-04-01T11:03:14.609Z,80.1599
2023-04-01T11:04:15.524Z,80.0261
2023-04-01T11:05:20.743Z,80.4448
2023-04-01T11:06:17.527Z,80.5313
2023-04-01T11:07:18.396Z,80.3484
2023-04-01T11:08:19.232Z,80.0288
2023-04-01T11:09:20.108Z,79.5843
2023-04-01T11:10:20.957Z,79.5532
2023-04-01T11:11:21.764Z,78.9648
2023-04-01T11:12:22.556Z,78.9376
2023-04-01T11:13:23.421Z,79.1198
2023-04-01T11:14:24.372Z,79.2674
2023-04-01T11:15:25.184Z,78.7683
2023-04-01T11:16:26.032Z,78.2994
2023-04-01T11:17:26.950Z,78.6288
2023-04-01T11:18:27.816Z,79.0021
2023-04-01T11:19:28.736Z,77.9322
2023-04-01T11:20:29.540Z,78.0624
2023-04-01T11:21:30.418Z,77.6287
2023-04-01T11:22:31.239Z,77.9078
2023-04-01T11:23:32.084Z,78.0253
2023-04-01T11:24:32.883Z,78.0335
2023-04-01T11:25:34.616Z,78.4060
2023-04-01T11:26:35.547Z,78.9036
2023-04-01T11:27:39.791Z,78.9402
2023-04-01T11:28:38.559Z,78.8289
2023-04-01T11:29:58.765Z,79.3944
2023-04-01T11:30:40.895Z,80.4233
2023-04-01T11:31:41.914Z,79.8175
2023-04-01T11:32:42.912Z,80.0761
2023-04-01T11:33:43.803Z,80.6182
2023-04-01T11:34:44.569Z,81.8028
2023-04-01T11:35:45.423Z,82.4116
2023-04-01T11:36:46.317Z,81.2087
2023-04-01T11:37:47.093Z,81.3238
2023-04-01T11:38:47.876Z,81.4748
2023-04-01T11:39:48.734Z,81.3301
2023-04-01T11:40:49.652Z,80.5423
2023-04-01T11:41:50.533Z,81.0704
2023-04-01T11:42:51.384Z,81.1607
2023-04-01T11:43:52.232Z,81.8254
2023-04-01T11:44:53.115Z,81.2459
2023-04-01T11:45:53.995Z,81.1420
2023-04-01T11:46:55.099Z,81.1067
2023-04-01T11:47:56.005Z,81.1814
2023-04-01T11:48:56.821Z,81.2298
2023-04-01T11:49:57.607Z,81.1566
2023-04-01T11:50:58.506Z,80.7196
2023-04-01T11:51:59.396Z,80.5834
2023-04-01T11:53:00.267Z,79.8537
2023-04-01T11:54:01.179Z,80.5314
2023-04-01T11:55:01.992Z,80.2019
2023-04-01T11:56:02.963Z,80.0171
2023-04-01T11:57:03.852Z,80.6687
2023-04-01T11:58:04.668Z,79.8068
2023-04-01T11:59:05.471Z,79.3088
2023-04-01T12:00:06.247Z,78.6607
2023-04-01T12:01:07.086Z,78.5108
2023-04-01T12:02:07.985Z,77.7610
2023-04-01T12:03:09.010Z,76.9508
2023-04-01T12:04:10.506Z,77.4835
2023-04-01T12:05:11.709Z,77.8264
2023-04-01T12:06:12.482Z,77.4901
2023-04-01T12:07:13.290Z,76.6521
2023-04-01T12:08:14.106Z,76.3194
2023-04-01T12:09:14.912Z,76.8349
2023-04-01T12:10:15.702Z,76.7924
2023-04-01T12:11:16.720Z,76.4100
2023-04-01T12:12:17.546Z,75.2548
2023-04-01T12:13:18.356Z,74.5931
2023-04-01T12:14:19.145Z,74.4231
2023-04-01T12:15:19.921Z,74.3368
2023-04-01T12:16:20.833Z,74.7489